Time;durP1;ratioP1;P1;durP2;ratioP2;P2;SDS_P1;SDS_P2;PMS_P1;PMS_P2;Temp;Humidity;BMP_temperature;BMP_pressure;BME280_temperature;BME280_humidity;BME280_pressure;Samples;Min_cycle;Max_cycle;Signal;HPM_P1;HPM_P2
2022/06/06 00:00:03;;;;;;;;;;;;;;;24.40;55.38;100158.81;2084138;28;19913;-66
2022/06/06 00:01:24;;;;;;;;;;;;;;;24.41;55.39;100162.41;2083714;28;19916;-66
2022/06/06 00:02:28;;;;;;;;;;;;;;;24.42;55.54;100155.84;2084272;28;19916;-67
2022/06/06 00:03:30;;;;;;;;;;;;;;;24.39;55.37;100152.41;2077472;28;19968;-66
2022/06/06 00:04:30;;;;;;;;;;;;;;;24.41;55.38;100152.25;2076608;28;19917;-66
2022/06/06 00:05:30;;;;;;;;;;;;;;;24.41;55.56;100149.50;2083536;28;19965;-67
2022/06/06 00:06:31;;;;;;;;;;;;;;;24.41;55.41;100145.88;2083313;28;20684;-66
2022/06/06 00:07:31;;;;;;;;;;;;;;;24.41;55.38;100154.16;2084577;28;19916;-66
2022/06/06 00:08:31;;;;;;;;;;;;;;;24.41;55.34;100145.88;2087361;28;19939;-66
2022/06/06 00:09:32;;;;;;;;;;;;;;;24.41;55.46;100143.13;2083908;28;19917;-66
2022/06/06 00:10:33;;;;;;;;;;;;;;;24.41;55.48;100143.13;2081748;28;19916;-66
2022/06/06 00:11:34;;;;;;;;;;;;;;;24.41;55.27;100137.63;2094132;28;19943;-67
2022/06/06 00:12:35;;;;;;;;;;;;;;;24.39;55.37;100141.41;2085826;28;20765;-66
2022/06/06 00:13:37;;;;;;;;;;;;;;;24.39;55.48;100141.41;2086014;28;19967;-66
2022/06/06 00:14:37;;;;;;;;;;;;;;;24.41;55.42;100143.13;2084100;28;20031;-67
2022/06/06 00:15:38;;;;;;;;;;;;;;;24.38;55.45;100139.69;2083718;28;20110;-66
2022/06/06 00:16:38;;;;;;;;;;;;;;;24.39;55.51;100144.16;2085111;28;19924;-66
2022/06/06 00:17:39;;;;;;;;;;;;;;;24.39;55.44;100135.88;2087340;28;19974;-66
2022/06/06 00:18:39;;;;;;;;;;;;;;;24.41;55.36;100137.63;2089940;28;19921;-66
2022/06/06 00:19:40;;;;;;;;;;;;;;;24.39;55.39;100138.66;2085031;28;19909;-66
2022/06/06 00:20:40;;;;;;;;;;;;;;;24.39;55.42;100140.56;2075579;28;19920;-66
2022/06/06 00:21:41;;;;;;;;;;;;;;;24.38;55.56;100123.16;2075401;28;20280;-66
2022/06/06 00:22:42;;;;;;;;;;;;;;;24.38;55.49;100128.69;2084445;28;20302;-66
2022/06/06 00:23:42;;;;;;;;;;;;;;;24.38;55.52;100122.31;2084780;28;20536;-66
2022/06/06 00:24:43;;;;;;;;;;;;;;;24.38;55.66;100128.69;2084979;28;20767;-66
2022/06/06 00:25:43;;;;;;;;;;;;;;;24.37;55.49;100126.94;2086169;28;20734;-66
2022/06/06 00:26:43;;;;;;;;;;;;;;;24.37;55.63;100121.44;2089438;28;19916;-67
2022/06/06 00:27:44;;;;;;;;;;;;;;;24.36;55.44;100125.25;2093649;28;20011;-66
2022/06/06 00:28:44;;;;;;;;;;;;;;;24.37;55.45;100117.84;2080397;28;19948;-66
2022/06/06 00:29:45;;;;;;;;;;;;;;;24.36;55.48;100119.75;2085631;28;19920;-67
2022/06/06 00:30:45;;;;;;;;;;;;;;;24.36;55.53;100122.50;2069876;28;19916;-66
2022/06/06 00:35:42;;;;;;;;;;;;;;;24.35;55.53;100115.28;2079280;28;20358;-66
2022/06/06 00:36:43;;;;;;;;;;;;;;;24.35;55.36;100120.78;2090049;28;19916;-66
2022/06/06 00:37:43;;;;;;;;;;;;;;;24.34;55.55;100116.31;2086147;28;19912;-66
2022/06/06 00:38:44;;;;;;;;;;;;;;;24.35;55.33;100115.28;2089718;28;19928;-66
2022/06/06 00:39:45;;;;;;;;;;;;;;;24.36;55.61;100116.97;2080122;28;20550;-66
2022/06/06 00:40:47;;;;;;;;;;;;;;;24.36;55.48;100119.75;2086331;28;19912;-66
2022/06/06 00:41:49;;;;;;;;;;;;;;;24.35;55.62;100112.53;2087138;28;20446;-66
2022/06/06 00:42:49;;;;;;;;;;;;;;;24.36;55.36;100111.47;2084103;28;20029;-66
2022/06/06 00:44:06;;;;;;;;;;;;;;;24.36;55.46;100108.72;2085621;28;19958;-66
2022/06/06 00:45:12;;;;;;;;;;;;;;;24.35;55.45;100104.25;2084592;28;20359;-66
2022/06/06 00:46:12;;;;;;;;;;;;;;;24.36;55.39;100111.47;2085993;28;19942;-66
2022/06/06 00:47:27;;;;;;;;;;;;;;;24.35;55.50;100104.25;2083879;28;19916;-66
2022/06/06 00:48:36;;;;;;;;;;;;;;;24.35;55.36;100114.41;2092263;28;20007;-66
2022/06/06 00:49:49;;;;;;;;;;;;;;;24.36;55.52;100116.13;2092144;28;19915;-67
2022/06/06 00:51:05;;;;;;;;;;;;;;;24.36;55.44;100111.47;2086081;28;19990;-66
2022/06/06 00:52:11;;;;;;;;;;;;;;;24.35;55.52;100107.03;2082217;28;20243;-67
2022/06/06 00:53:13;;;;;;;;;;;;;;;24.35;55.61;100112.53;2089355;28;20551;-66
2022/06/06 00:54:13;;;;;;;;;;;;;;;24.35;55.40;100109.78;2083544;28;19923;-66
2022/06/06 00:55:21;;;;;;;;;;;;;;;24.35;55.60;100098.75;2084122;28;19959;-67
2022/06/06 00:56:29;;;;;;;;;;;;;;;24.34;55.41;100116.31;2085220;28;19994;-66
2022/06/06 00:57:32;;;;;;;;;;;;;;;24.35;55.63;100112.53;2088677;28;19989;-67
2022/06/06 00:58:34;;;;;;;;;;;;;;;24.34;55.37;100105.28;2091257;28;20155;-66
2022/06/06 00:59:36;;;;;;;;;;;;;;;24.34;55.67;100104.44;2084812;28;19916;-66
2022/06/06 01:00:37;;;;;;;;;;;;;;;24.34;55.70;100113.56;2088066;28;20681;-67
2022/06/06 01:01:38;;;;;;;;;;;;;;;24.34;55.51;100113.56;2088578;28;19927;-66
2022/06/06 01:02:40;;;;;;;;;;;;;;;24.34;55.64;100109.94;2085700;28;19917;-66
2022/06/06 01:03:41;;;;;;;;;;;;;;;24.33;55.61;100108.25;2080535;28;20284;-66
2022/06/06 01:04:42;;;;;;;;;;;;;;;24.33;55.64;100108.25;2087830;28;19923;-66
2022/06/06 01:05:43;;;;;;;;;;;;;;;24.33;55.70;100109.09;2089007;28;20747;-66
2022/06/06 01:06:45;;;;;;;;;;;;;;;24.32;55.78;100112.88;2091683;28;20398;-66
2022/06/06 01:07:45;;;;;;;;;;;;;;;24.32;55.69;100107.38;2085870;28;19990;-67
2022/06/06 01:08:46;;;;;;;;;;;;;;;24.32;55.70;100101.00;2084112;28;19916;-66
2022/06/06 01:09:47;;;;;;;;;;;;;;;24.31;55.66;100105.66;2074477;28;19929;-66
2022/06/06 01:10:48;;;;;;;;;;;;;;;24.32;55.63;100101.00;2075805;28;19916;-67
2022/06/06 01:11:50;;;;;;;;;;;;;;;24.31;55.93;100091.88;2090220;28;19916;-66
2022/06/06 01:12:53;;;;;;;;;;;;;;;24.29;55.68;100096.72;2088432;28;19996;-67
2022/06/06 01:13:54;;;;;;;;;;;;;;;24.31;55.71;100089.13;2084364;28;19920;-66
2022/06/06 01:14:57;;;;;;;;;;;;;;;24.31;55.82;100089.13;2091321;28;19908;-66
2022/06/06 01:16:15;;;;;;;;;;;;;;;24.30;55.59;100090.19;2087478;28;20339;-67
2022/06/06 01:17:16;;;;;;;;;;;;;;;24.32;55.63;100095.50;2084135;28;19912;-66
2022/06/06 01:18:36;;;;;;;;;;;;;;;24.30;55.82;100090.19;2091292;28;19951;-67
2022/06/06 01:19:36;;;;;;;;;;;;;;;24.31;55.54;100097.41;2042596;28;19929;-66
2022/06/06 01:20:39;;;;;;;;;;;;;;;24.31;55.66;100091.88;2072440;28;19909;-66
2022/06/06 01:22:09;;;;;;;;;;;;;;;24.32;55.59;100089.97;2084958;28;19978;-66
2022/06/06 01:23:27;;;;;;;;;;;;;;;24.32;55.74;100084.47;2050705;28;20509;-66
2022/06/06 01:24:39;;;;;;;;;;;;;;;24.31;55.80;100086.38;2055184;28;19918;-66
2022/06/06 01:25:39;;;;;;;;;;;;;;;24.32;55.74;100084.47;2080845;28;20255;-66
2022/06/06 01:27:00;;;;;;;;;;;;;;;24.31;55.54;100083.63;2082480;28;19974;-66
2022/06/06 01:28:05;;;;;;;;;;;;;;;24.32;55.69;100084.47;2074515;28;20011;-66
2022/06/06 01:29:24;;;;;;;;;;;;;;;24.32;55.54;100074.31;2088555;28;19923;-67
2022/06/06 01:30:31;;;;;;;;;;;;;;;24.30;55.54;100079.16;2085233;28;19920;-66
2022/06/06 01:31:43;;;;;;;;;;;;;;;24.31;55.62;100072.59;2086412;28;19920;-66
2022/06/06 01:32:45;;;;;;;;;;;;;;;24.31;55.64;100066.25;2082815;28;20015;-66
2022/06/06 01:33:48;;;;;;;;;;;;;;;24.31;55.48;100078.13;2086981;28;19931;-66
2022/06/06 01:34:52;;;;;;;;;;;;;;;24.31;55.78;100078.13;2080074;28;19951;-67
2022/06/06 01:35:52;;;;;;;;;;;;;;;24.29;55.77;100063.66;2080873;28;20450;-67
2022/06/06 01:36:54;;;;;;;;;;;;;;;24.30;55.67;100072.78;2089343;28;20369;-67
2022/06/06 01:37:54;;;;;;;;;;;;;;;24.30;55.59;100075.53;2085070;28;20370;-66
2022/06/06 01:38:56;;;;;;;;;;;;;;;24.30;55.78;100081.03;2090783;28;19909;-66
2022/06/06 01:39:58;;;;;;;;;;;;;;;24.29;55.66;100077.44;2090228;28;19915;-66
2022/06/06 01:41:09;;;;;;;;;;;;;;;24.29;55.67;100085.69;2084819;28;19917;-66
2022/06/06 01:42:13;;;;;;;;;;;;;;;24.28;55.80;100073.00;2083328;28;20558;-66
2022/06/06 01:43:15;;;;;;;;;;;;;;;24.28;55.69;100073.00;2085011;28;20495;-66
2022/06/06 01:44:22;;;;;;;;;;;;;;;24.28;55.71;100070.22;2083563;28;19925;-66
2022/06/06 01:45:22;;;;;;;;;;;;;;;24.28;55.75;100073.00;2084440;28;20472;-67
2022/06/06 01:46:26;;;;;;;;;;;;;;;24.28;55.86;100078.50;2085410;28;20372;-66
2022/06/06 01:47:29;;;;;;;;;;;;;;;24.27;55.62;100065.75;2084204;28;20486;-66
2022/06/06 01:48:33;;;;;;;;;;;;;;;24.26;55.78;100058.53;2089717;28;19955;-66
2022/06/06 01:49:34;;;;;;;;;;;;;;;24.27;55.74;100065.75;2083606;28;19916;-66
2022/06/06 01:50:36;;;;;;;;;;;;;;;24.26;55.83;100069.56;2083610;28;19958;-66
2022/06/06 01:51:36;;;;;;;;;;;;;;;24.26;55.73;100058.53;2082075;28;19923;-66
2022/06/06 01:52:50;;;;;;;;;;;;;;;24.26;55.75;100064.03;2077280;28;19916;-66
2022/06/06 01:53:51;;;;;;;;;;;;;;;24.27;55.82;100065.75;2084003;28;19919;-66
2022/06/06 01:54:56;;;;;;;;;;;;;;;24.27;55.71;100057.47;2083762;28;20402;-67
2022/06/06 01:55:56;;;;;;;;;;;;;;;24.28;55.63;100061.97;2086542;28;20763;-66
2022/06/06 01:56:57;;;;;;;;;;;;;;;24.28;55.71;100053.69;2083586;28;20311;-67
2022/06/06 01:58:00;;;;;;;;;;;;;;;24.26;55.81;100055.78;2083778;28;20154;-66
2022/06/06 01:59:00;;;;;;;;;;;;;;;24.27;55.78;100053.88;2079519;28;19917;-66
2022/06/06 02:00:00;;;;;;;;;;;;;;;24.27;55.73;100054.72;2085028;28;19916;-66
2022/06/06 02:01:02;;;;;;;;;;;;;;;24.27;55.63;100046.47;2083726;28;19920;-67
2022/06/06 02:02:03;;;;;;;;;;;;;;;24.27;55.69;100057.47;2083679;28;19966;-66
2022/06/06 02:03:03;;;;;;;;;;;;;;;24.27;55.69;100053.88;2077315;28;19917;-66
2022/06/06 02:04:04;;;;;;;;;;;;;;;24.26;55.67;100047.53;2076531;28;19923;-66
2022/06/06 02:05:04;;;;;;;;;;;;;;;24.27;55.82;100049.22;2086067;28;19916;-66
2022/06/06 02:06:05;;;;;;;;;;;;;;;24.26;55.79;100039.25;2077168;28;20139;-66
2022/06/06 02:07:06;;;;;;;;;;;;;;;24.26;55.66;100050.28;2085434;28;19916;-66
2022/06/06 02:08:07;;;;;;;;;;;;;;;24.27;55.84;100038.19;2080072;28;19917;-67
2022/06/06 02:09:08;;;;;;;;;;;;;;;24.27;55.85;100038.19;2080697;28;19917;-66
2022/06/06 02:10:10;;;;;;;;;;;;;;;24.27;55.88;100038.19;2078560;28;19917;-66
2022/06/06 02:11:11;;;;;;;;;;;;;;;24.26;55.91;100031.00;2084270;28;19974;-66
2022/06/06 02:12:11;;;;;;;;;;;;;;;24.26;55.81;100030.16;2088030;28;19911;-66
2022/06/06 02:13:12;;;;;;;;;;;;;;;24.26;55.75;100025.47;2074497;28;20466;-67
2022/06/06 02:14:12;;;;;;;;;;;;;;;24.27;55.78;100031.84;2070434;28;19915;-66
2022/06/06 02:15:14;;;;;;;;;;;;;;;24.26;55.74;100025.47;2087232;28;19917;-66
2022/06/06 02:16:14;;;;;;;;;;;;;;;24.24;55.76;100022.06;2083377;28;19928;-66
2022/06/06 02:17:15;;;;;;;;;;;;;;;24.24;55.92;100016.53;2089306;28;19916;-67
2022/06/06 02:18:15;;;;;;;;;;;;;;;24.24;55.67;100015.69;2085555;28;19915;-67
2022/06/06 02:19:15;;;;;;;;;;;;;;;24.24;55.80;100010.19;2085035;28;19909;-66
2022/06/06 02:20:17;;;;;;;;;;;;;;;24.24;55.79;100004.69;2088641;28;19915;-66
2022/06/06 02:21:17;;;;;;;;;;;;;;;24.23;55.79;100006.59;2080353;28;19909;-66
2022/06/06 02:22:17;;;;;;;;;;;;;;;24.24;55.72;100010.19;2080898;28;19916;-67
2022/06/06 02:23:18;;;;;;;;;;;;;;;24.23;55.89;100009.34;2077831;28;19921;-66
2022/06/06 02:24:18;;;;;;;;;;;;;;;24.23;55.87;100003.81;2082825;28;19917;-66
2022/06/06 02:25:19;;;;;;;;;;;;;;;24.22;55.84;99999.34;2077906;28;19917;-66
2022/06/06 02:26:19;;;;;;;;;;;;;;;24.22;55.65;100004.84;2085166;28;19920;-66
2022/06/06 02:27:19;;;;;;;;;;;;;;;24.23;55.95;100006.59;2079936;28;19924;-66
2022/06/06 02:28:20;;;;;;;;;;;;;;;24.22;55.95;100013.13;2086499;28;19912;-66
2022/06/06 02:29:20;;;;;;;;;;;;;;;24.22;55.85;99999.34;2084133;28;20345;-66
2022/06/06 02:30:22;;;;;;;;;;;;;;;24.23;55.71;100003.81;2083708;28;19916;-66
2022/06/06 02:31:22;;;;;;;;;;;;;;;24.22;55.81;100001.25;2082307;28;19920;-66
2022/06/06 02:32:22;;;;;;;;;;;;;;;24.23;55.68;100003.81;2086371;28;19917;-66
2022/06/06 02:33:23;;;;;;;;;;;;;;;24.22;55.72;100004.84;2079062;28;19921;-66
2022/06/06 02:34:23;;;;;;;;;;;;;;;24.22;55.97;99999.34;2081691;28;19916;-66
2022/06/06 02:35:25;;;;;;;;;;;;;;;24.23;55.92;100003.81;2079683;28;20669;-66
2022/06/06 02:36:25;;;;;;;;;;;;;;;24.23;55.80;99998.31;2079047;28;19924;-66
2022/06/06 02:37:26;;;;;;;;;;;;;;;24.22;55.80;99996.59;2082512;28;19908;-66
2022/06/06 02:38:27;;;;;;;;;;;;;;;24.22;55.79;100002.09;2076631;28;19948;-66
2022/06/06 02:39:27;;;;;;;;;;;;;;;24.23;55.78;100001.06;2076955;28;19962;-66
2022/06/06 02:40:29;;;;;;;;;;;;;;;24.22;55.85;100002.09;2080478;28;20469;-66
2022/06/06 02:41:30;;;;;;;;;;;;;;;24.22;55.92;100002.09;2083528;28;20259;-66
2022/06/06 02:42:30;;;;;;;;;;;;;;;24.22;55.88;100004.84;2089127;28;19916;-68
2022/06/06 02:43:30;;;;;;;;;;;;;;;24.23;55.91;100002.94;2083826;28;19958;-66
2022/06/06 02:44:31;;;;;;;;;;;;;;;24.23;55.82;100008.44;2082075;28;19909;-66
2022/06/06 02:45:32;;;;;;;;;;;;;;;24.22;55.91;99996.59;2081772;28;19966;-66
2022/06/06 02:46:32;;;;;;;;;;;;;;;24.22;55.92;100002.09;2076437;28;19975;-66
2022/06/06 02:47:33;;;;;;;;;;;;;;;24.22;55.76;100002.09;2084770;28;20014;-67
2022/06/06 02:48:34;;;;;;;;;;;;;;;24.22;55.97;100002.09;2082410;28;19930;-66
2022/06/06 02:49:34;;;;;;;;;;;;;;;24.21;55.91;100003.16;2085031;28;19916;-66
2022/06/06 02:50:34;;;;;;;;;;;;;;;24.21;55.91;100003.16;2084307;28;19908;-66
2022/06/06 02:51:35;;;;;;;;;;;;;;;24.22;55.87;100006.75;2084956;28;19920;-66
2022/06/06 02:52:35;;;;;;;;;;;;;;;24.21;55.94;100005.91;2081452;28;19909;-66
2022/06/06 02:53:36;;;;;;;;;;;;;;;24.20;55.74;99998.66;2081993;28;20443;-66
2022/06/06 02:54:36;;;;;;;;;;;;;;;24.20;55.72;100006.94;2079615;28;19923;-66
2022/06/06 02:55:37;;;;;;;;;;;;;;;24.20;55.83;100004.19;2083675;28;19916;-66
2022/06/06 02:56:38;;;;;;;;;;;;;;;24.19;55.84;100007.97;2079425;28;20209;-66
2022/06/06 02:57:39;;;;;;;;;;;;;;;24.19;55.87;100013.50;2077219;28;20502;-66
2022/06/06 02:58:40;;;;;;;;;;;;;;;24.20;55.96;100014.34;2083156;28;20004;-66
2022/06/06 02:59:43;;;;;;;;;;;;;;;24.19;55.89;100013.50;2080360;28;20035;-66
2022/06/06 03:00:43;;;;;;;;;;;;;;;24.18;55.80;100011.78;2086270;28;19917;-66
2022/06/06 03:01:44;;;;;;;;;;;;;;;24.19;55.99;100013.50;2088105;28;19916;-66
2022/06/06 03:02:44;;;;;;;;;;;;;;;24.19;55.91;100019.00;2085053;28;19923;-67
2022/06/06 03:03:44;;;;;;;;;;;;;;;24.18;55.77;100011.78;2073985;28;19908;-67
2022/06/06 03:04:45;;;;;;;;;;;;;;;24.18;55.88;100011.78;2071677;28;19909;-67
2022/06/06 03:05:46;;;;;;;;;;;;;;;24.18;55.95;100014.56;2083943;28;19909;-66
2022/06/06 03:06:46;;;;;;;;;;;;;;;24.18;55.91;100014.56;2082856;28;19908;-66
2022/06/06 03:07:46;;;;;;;;;;;;;;;24.18;56.03;100015.41;2075919;28;19912;-66
2022/06/06 03:08:51;;;;;;;;;;;;;;;24.19;55.98;100013.50;2080210;28;19922;-66
2022/06/06 03:10:00;;;;;;;;;;;;;;;24.18;56.02;100012.63;2077995;28;19908;-66
2022/06/06 03:11:01;;;;;;;;;;;;;;;24.18;55.90;100011.78;2082677;28;20963;-66
2022/06/06 03:12:04;;;;;;;;;;;;;;;24.18;55.99;100012.63;2076423;28;19909;-67
2022/06/06 03:13:13;;;;;;;;;;;;;;;24.18;55.93;100014.56;2067558;28;19917;-66
2022/06/06 03:14:16;;;;;;;;;;;;;;;24.19;55.91;100019.00;2067898;28;19999;-66
2022/06/06 03:15:19;;;;;;;;;;;;;;;24.17;55.97;100024.69;2077183;28;19973;-66
2022/06/06 03:20:46;;;;;;;;;;;;;;;24.18;55.88;100017.31;2082797;28;19939;-66
2022/06/06 03:22:05;;;;;;;;;;;;;;;24.18;55.97;100022.81;2076940;28;19989;-66
2022/06/06 03:23:05;;;;;;;;;;;;;;;24.17;55.97;100010.91;2082331;28;20334;-67
2022/06/06 03:24:15;;;;;;;;;;;;;;;24.18;56.04;100017.31;2083060;28;20224;-66
2022/06/06 03:25:22;;;;;;;;;;;;;;;24.17;55.97;100015.56;2076516;28;19917;-66
2022/06/06 03:26:33;;;;;;;;;;;;;;;24.18;55.98;100011.78;2076118;28;19913;-66
2022/06/06 03:27:33;;;;;;;;;;;;;;;24.18;55.96;100014.56;2078376;28;19917;-66
2022/06/06 03:28:33;;;;;;;;;;;;;;;24.17;55.91;100013.66;2073971;28;19916;-66
2022/06/06 03:29:40;;;;;;;;;;;;;;;24.17;56.01;100015.56;2076750;28;20315;-66
2022/06/06 03:30:44;;;;;;;;;;;;;;;24.16;55.99;100014.72;2082900;28;19917;-66
2022/06/06 03:32:11;;;;;;;;;;;;;;;24.16;56.07;100008.38;2069716;28;19917;-66
2022/06/06 03:33:16;;;;;;;;;;;;;;;24.16;56.05;100013.88;2051177;28;19997;-67
2022/06/06 03:34:17;;;;;;;;;;;;;;;24.15;55.90;100012.13;2075350;28;19951;-66
2022/06/06 03:35:32;;;;;;;;;;;;;;;24.15;55.99;100013.00;2068921;28;19928;-66
2022/06/06 03:36:46;;;;;;;;;;;;;;;24.15;56.00;100009.38;2072768;28;19986;-66
2022/06/06 03:38:05;;;;;;;;;;;;;;;24.15;56.01;100012.13;2076125;28;19928;-66
2022/06/06 03:39:12;;;;;;;;;;;;;;;24.14;56.01;100010.44;2080384;28;20436;-66
2022/06/06 03:40:18;;;;;;;;;;;;;;;24.13;55.95;100008.72;2080098;28;20100;-66
2022/06/06 03:41:26;;;;;;;;;;;;;;;24.14;55.94;100010.44;2087991;28;19970;-66
2022/06/06 03:42:47;;;;;;;;;;;;;;;24.13;55.94;100009.59;2081252;28;19923;-67
2022/06/06 03:43:57;;;;;;;;;;;;;;;24.14;56.13;100014.03;2079810;28;19951;-67
2022/06/06 03:45:17;;;;;;;;;;;;;;;24.14;56.05;100004.94;2085747;28;20094;-66
2022/06/06 03:46:33;;;;;;;;;;;;;;;24.13;55.97;100009.59;2080544;28;19917;-66
2022/06/06 03:47:46;;;;;;;;;;;;;;;24.14;56.07;100013.19;2082679;28;20340;-67
2022/06/06 03:48:55;;;;;;;;;;;;;;;24.14;56.10;100004.94;2082184;28;19962;-67
2022/06/06 03:50:08;;;;;;;;;;;;;;;24.14;56.13;100010.44;2078992;28;19920;-66
2022/06/06 03:51:08;;;;;;;;;;;;;;;24.14;56.09;100007.69;2084957;28;19916;-67
2022/06/06 03:52:35;;;;;;;;;;;;;;;24.14;56.10;100003.03;2083698;28;19909;-66
2022/06/06 03:53:54;;;;;;;;;;;;;;;24.13;55.94;100008.72;2084758;28;20379;-66
2022/06/06 03:55:12;;;;;;;;;;;;;;;24.14;55.89;100010.44;2081205;28;20577;-66
2022/06/06 03:56:23;;;;;;;;;;;;;;;24.13;55.94;100012.34;2081856;28;19924;-66
2022/06/06 03:57:24;;;;;;;;;;;;;;;24.14;56.00;100015.94;2084442;28;19928;-66
2022/06/06 03:58:27;;;;;;;;;;;;;;;24.13;56.00;100015.09;2082166;28;20593;-66
2022/06/06 03:59:29;;;;;;;;;;;;;;;24.14;56.00;100010.44;2084476;28;19916;-66
2022/06/06 04:00:31;;;;;;;;;;;;;;;24.13;56.10;100014.22;2090293;28;20006;-67
2022/06/06 04:01:35;;;;;;;;;;;;;;;24.13;55.95;100015.09;2081683;28;19916;-66
2022/06/06 04:02:36;;;;;;;;;;;;;;;24.14;56.04;100021.47;2078839;28;19923;-66
2022/06/06 04:03:37;;;;;;;;;;;;;;;24.13;56.05;100020.59;2083682;28;19909;-66
2022/06/06 04:04:38;;;;;;;;;;;;;;;24.13;56.07;100025.22;2079549;28;20396;-66
2022/06/06 04:05:39;;;;;;;;;;;;;;;24.13;56.01;100028.88;2083864;28;19920;-66
2022/06/06 04:06:39;;;;;;;;;;;;;;;24.14;56.13;100032.47;2088990;28;19908;-66
2022/06/06 04:07:39;;;;;;;;;;;;;;;24.12;56.05;100027.13;2084902;28;20028;-66
2022/06/06 04:08:39;;;;;;;;;;;;;;;24.13;56.10;100025.22;2089410;28;19916;-66
2022/06/06 04:09:40;;;;;;;;;;;;;;;24.13;56.01;100030.75;2068647;28;19960;-67
2022/06/06 04:10:52;;;;;;;;;;;;;;;24.11;56.15;100027.34;2060228;28;19909;-66
2022/06/06 04:11:59;;;;;;;;;;;;;;;24.10;56.14;100026.47;2074235;28;19987;-67
2022/06/06 04:13:29;;;;;;;;;;;;;;;24.11;56.14;100021.84;2087900;28;19922;-66
2022/06/06 04:14:48;;;;;;;;;;;;;;;24.10;56.13;100031.13;2081254;28;19995;-66
2022/06/06 04:15:52;;;;;;;;;;;;;;;24.10;56.29;100037.47;2080977;28;20011;-66
2022/06/06 04:16:59;;;;;;;;;;;;;;;24.10;56.20;100025.63;2079690;28;20729;-67
2022/06/06 04:18:05;;;;;;;;;;;;;;;24.09;56.08;100038.53;2090263;28;20457;-66
2022/06/06 04:19:15;;;;;;;;;;;;;;;24.09;56.20;100035.78;2082311;28;20413;-66
2022/06/06 04:20:18;;;;;;;;;;;;;;;24.08;56.22;100017.56;2079186;28;20007;-66
2022/06/06 04:21:47;;;;;;;;;;;;;;;24.09;56.27;100026.66;2088189;28;20632;-66
2022/06/06 04:23:11;;;;;;;;;;;;;;;24.09;56.29;100026.66;2066928;28;20378;-66
2022/06/06 04:24:24;;;;;;;;;;;;;;;24.08;56.14;100025.81;2076066;28;20437;-66
2022/06/06 04:25:39;;;;;;;;;;;;;;;24.08;56.19;100027.69;2090345;28;19969;-66
2022/06/06 04:26:46;;;;;;;;;;;;;;;24.09;56.09;100026.66;2086276;28;20571;-66
2022/06/06 04:27:49;;;;;;;;;;;;;;;24.09;56.05;100023.91;2082850;28;20613;-66
2022/06/06 04:28:49;;;;;;;;;;;;;;;24.09;56.17;100023.91;2085382;28;19920;-66
2022/06/06 04:29:59;;;;;;;;;;;;;;;24.08;56.14;100020.31;2077777;28;19921;-66
2022/06/06 04:31:02;;;;;;;;;;;;;;;24.09;56.06;100024.75;2083058;28;19966;-67
2022/06/06 04:32:15;;;;;;;;;;;;;;;24.10;56.12;100025.63;2087228;28;19970;-66
2022/06/06 04:33:18;;;;;;;;;;;;;;;24.10;56.03;100028.38;2087506;28;19923;-66
2022/06/06 04:34:27;;;;;;;;;;;;;;;24.09;55.96;100026.66;2084614;28;20007;-67
2022/06/06 04:35:39;;;;;;;;;;;;;;;24.08;56.09;100027.69;2082709;28;20213;-67
2022/06/06 04:36:58;;;;;;;;;;;;;;;24.08;56.07;100022.19;2087897;28;19931;-66
2022/06/06 04:37:59;;;;;;;;;;;;;;;24.08;56.09;100022.19;2078828;28;19917;-66
2022/06/06 04:38:59;;;;;;;;;;;;;;;24.08;56.14;100022.19;2080831;28;19962;-66
2022/06/06 04:40:11;;;;;;;;;;;;;;;24.08;56.14;100025.81;2086903;28;19921;-66
2022/06/06 04:41:16;;;;;;;;;;;;;;;24.09;56.11;100023.91;2085490;28;19916;-66
2022/06/06 04:42:25;;;;;;;;;;;;;;;24.08;56.09;100020.31;2084213;28;20401;-66
2022/06/06 04:43:25;;;;;;;;;;;;;;;24.08;56.23;100028.56;2084379;28;19963;-66
2022/06/06 04:44:46;;;;;;;;;;;;;;;24.08;56.15;100024.94;2089757;28;19916;-66
2022/06/06 04:45:46;;;;;;;;;;;;;;;24.08;56.20;100035.94;2083148;28;20402;-66
2022/06/06 04:46:58;;;;;;;;;;;;;;;24.08;56.14;100033.19;2090199;28;20294;-66
2022/06/06 04:47:59;;;;;;;;;;;;;;;24.07;56.25;100026.84;2090382;28;19904;-65
2022/06/06 04:48:59;;;;;;;;;;;;;;;24.07;56.12;100026.00;2085918;28;19971;-65
2022/06/06 04:50:02;;;;;;;;;;;;;;;24.08;56.23;100028.56;2086197;28;20263;-65
2022/06/06 04:51:04;;;;;;;;;;;;;;;24.06;56.20;100024.28;2086349;28;19923;-65
2022/06/06 04:52:05;;;;;;;;;;;;;;;24.06;56.36;100024.28;2081543;28;19960;-65
2022/06/06 04:53:11;;;;;;;;;;;;;;;24.07;56.26;100020.47;2088717;28;20298;-65
2022/06/06 04:54:17;;;;;;;;;;;;;;;24.05;56.21;100023.41;2088477;28;19916;-65
2022/06/06 04:55:18;;;;;;;;;;;;;;;24.06;56.22;100024.28;2079185;28;19912;-65
2022/06/06 04:56:19;;;;;;;;;;;;;;;24.05;56.14;100023.41;2077655;28;19964;-65
2022/06/06 04:57:20;;;;;;;;;;;;;;;24.04;56.19;100021.72;2085619;28;20023;-65
2022/06/06 04:58:21;;;;;;;;;;;;;;;24.04;56.27;100021.72;2085886;28;19908;-66
2022/06/06 04:59:22;;;;;;;;;;;;;;;24.04;56.25;100020.84;2086410;28;19924;-65
2022/06/06 05:00:24;;;;;;;;;;;;;;;24.04;56.18;100020.84;2091146;28;20438;-66
2022/06/06 05:01:26;;;;;;;;;;;;;;;24.05;56.16;100017.06;2091214;28;19916;-65
2022/06/06 05:02:26;;;;;;;;;;;;;;;24.05;56.18;100019.81;2088526;28;20581;-65
2022/06/06 05:03:26;;;;;;;;;;;;;;;24.05;56.29;100017.06;2093793;28;19986;-65
2022/06/06 05:04:27;;;;;;;;;;;;;;;24.03;56.20;100017.22;2084587;28;19913;-66
2022/06/06 05:05:30;;;;;;;;;;;;;;;24.04;56.28;100016.19;2085461;28;19927;-65
2022/06/06 05:06:30;;;;;;;;;;;;;;;24.05;56.18;100017.06;2073150;28;19967;-65
2022/06/06 05:07:39;;;;;;;;;;;;;;;24.04;56.10;100015.34;2075525;28;20734;-66
2022/06/06 05:08:56;;;;;;;;;;;;;;;24.04;56.16;100009.84;2083024;28;20398;-65
2022/06/06 05:10:11;;;;;;;;;;;;;;;24.04;56.03;100009.84;2083373;28;19913;-65
2022/06/06 05:11:31;;;;;;;;;;;;;;;24.03;56.20;100010.88;2083619;28;20570;-65
2022/06/06 05:12:37;;;;;;;;;;;;;;;24.04;56.24;100018.09;2080347;28;20052;-65
2022/06/06 05:13:44;;;;;;;;;;;;;;;24.04;56.21;100004.34;2082342;28;19916;-65
2022/06/06 05:15:02;;;;;;;;;;;;;;;24.03;56.16;100006.22;2092185;28;19915;-65
2022/06/06 05:16:11;;;;;;;;;;;;;;;24.04;56.08;100009.84;2081875;28;19928;-66
2022/06/06 05:17:32;;;;;;;;;;;;;;;24.03;56.10;100014.47;2080719;28;19917;-65
2022/06/06 05:18:35;;;;;;;;;;;;;;;24.04;56.12;100012.59;2084515;28;19924;-65
2022/06/06 05:19:47;;;;;;;;;;;;;;;24.04;56.21;100015.34;2090128;28;19922;-65
2022/06/06 05:20:50;;;;;;;;;;;;;;;24.04;56.19;100018.09;2077345;28;20020;-65
2022/06/06 05:22:09;;;;;;;;;;;;;;;24.04;56.23;100018.09;2077544;28;20380;-65
2022/06/06 05:23:22;;;;;;;;;;;;;;;24.03;56.24;100017.22;2078249;28;19924;-65
2022/06/06 05:24:32;;;;;;;;;;;;;;;24.03;56.16;100013.63;2086135;28;19938;-65
2022/06/06 05:25:41;;;;;;;;;;;;;;;24.03;56.12;100014.47;2085976;28;19931;-66
2022/06/06 05:27:01;;;;;;;;;;;;;;;24.04;56.17;100018.09;2087414;28;19920;-65
2022/06/06 05:28:22;;;;;;;;;;;;;;;24.03;56.08;100024.63;2078845;28;19959;-65
2022/06/06 05:29:41;;;;;;;;;;;;;;;24.03;56.20;100028.25;2081627;28;19923;-65
2022/06/06 05:31:00;;;;;;;;;;;;;;;24.02;56.18;100034.78;2084027;28;19916;-65
2022/06/06 05:32:13;;;;;;;;;;;;;;;24.03;56.18;100030.13;2079435;28;20322;-66
2022/06/06 05:33:19;;;;;;;;;;;;;;;24.02;56.13;100033.94;2081119;28;20739;-66
2022/06/06 05:34:20;;;;;;;;;;;;;;;24.02;56.25;100039.44;2084793;28;19920;-65
2022/06/06 05:35:29;;;;;;;;;;;;;;;24.02;56.24;100033.94;2081222;28;19912;-66
2022/06/06 05:36:48;;;;;;;;;;;;;;;24.02;56.11;100033.94;2082739;28;19948;-65
2022/06/06 05:37:49;;;;;;;;;;;;;;;24.00;56.26;100031.38;2080290;28;19921;-65
2022/06/06 05:39:07;;;;;;;;;;;;;;;24.01;56.28;100026.72;2079791;28;19952;-65
2022/06/06 05:40:18;;;;;;;;;;;;;;;24.01;56.23;100032.22;2082758;28;19909;-65
2022/06/06 05:41:18;;;;;;;;;;;;;;;24.01;56.21;100032.22;2081049;28;19927;-65
2022/06/06 05:42:28;;;;;;;;;;;;;;;24.01;56.12;100032.22;2080466;28;19923;-65